createdAt,value
2018-07-06T00:01:07.878Z,95.60
2018-07-06T00:03:46.773Z,96.40
2018-07-06T00:06:25.425Z,96.60
2018-07-06T00:09:04.462Z,96.60
2018-07-06T00:11:43.168Z,96.50
2018-07-06T00:14:22.177Z,97.00
2018-07-06T00:17:00.863Z,97.50
2018-07-06T00:19:39.605Z,97.90
2018-07-06T00:22:18.377Z,97.50
2018-07-06T00:24:57.147Z,97.60
2018-07-06T00:27:35.895Z,98.40
2018-07-06T00:30:14.623Z,98.90
2018-07-06T00:32:53.322Z,99.20
2018-07-06T00:35:32.106Z,99.70
2018-07-06T00:38:10.948Z,99.90
2018-07-06T00:40:49.662Z,99.90
2018-07-06T00:43:28.363Z,99.70
2018-07-06T00:46:06.996Z,99.90
2018-07-06T00:48:45.851Z,99.90
2018-07-06T00:51:24.515Z,99.90
2018-07-06T00:54:03.855Z,99.90
2018-07-06T00:56:42.599Z,99.90
2018-07-06T00:59:21.405Z,99.90
2018-07-06T01:02:00.164Z,99.90
2018-07-06T01:04:39.069Z,99.90
2018-07-06T01:07:17.730Z,99.90
2018-07-06T01:09:56.403Z,99.90
2018-07-06T01:12:41.063Z,99.90
2018-07-06T01:15:25.854Z,99.90
2018-07-06T01:18:04.675Z,99.90
2018-07-06T01:20:43.403Z,99.90
2018-07-06T01:23:22.065Z,99.90
2018-07-06T01:26:01.125Z,99.90
2018-07-06T01:28:39.988Z,99.90
2018-07-06T01:31:19.145Z,99.90
2018-07-06T01:33:57.981Z,99.90
2018-07-06T01:36:37.114Z,99.90
2018-07-06T01:39:15.998Z,99.90
2018-07-06T01:41:54.614Z,99.90
2018-07-06T01:44:33.398Z,99.90
2018-07-06T01:47:12.443Z,99.90
2018-07-06T01:49:51.338Z,99.90
2018-07-06T01:52:30.655Z,99.90
2018-07-06T01:55:09.387Z,99.90
2018-07-06T01:57:48.052Z,99.90
2018-07-06T02:00:27.031Z,99.90
2018-07-06T02:03:06.495Z,99.90
2018-07-06T02:05:45.615Z,99.90
2018-07-06T02:08:24.792Z,99.90
2018-07-06T02:11:03.605Z,99.90
2018-07-06T02:13:42.412Z,99.90
2018-07-06T02:16:21.049Z,99.90
2018-07-06T02:18:59.680Z,99.90
2018-07-06T02:21:38.494Z,99.90
2018-07-06T02:24:17.271Z,99.90
2018-07-06T02:26:55.969Z,99.90
2018-07-06T02:29:35.484Z,99.90
2018-07-06T02:32:14.295Z,99.90
2018-07-06T02:34:52.939Z,99.90
2018-07-06T02:37:31.704Z,99.90
2018-07-06T02:40:10.543Z,99.90
2018-07-06T02:42:49.195Z,99.90
2018-07-06T02:45:28.096Z,99.90
2018-07-06T02:48:06.861Z,99.90
2018-07-06T02:53:18.735Z,99.90
2018-07-06T02:55:57.495Z,99.90
2018-07-06T02:58:36.163Z,99.90
2018-07-06T03:01:14.816Z,99.90
2018-07-06T03:03:53.697Z,99.90
2018-07-06T03:06:32.509Z,99.90
2018-07-06T03:09:11.256Z,99.90
2018-07-06T03:11:50.022Z,99.90
2018-07-06T03:14:29.003Z,99.90
2018-07-06T03:17:08.526Z,99.90
2018-07-06T03:19:47.377Z,99.90
2018-07-06T03:22:26.061Z,99.90
2018-07-06T03:25:05.180Z,99.90
2018-07-06T03:27:44.227Z,99.90
2018-07-06T03:30:23.067Z,99.90
2018-07-06T03:33:01.896Z,99.90
2018-07-06T03:35:40.659Z,99.90
2018-07-06T03:38:19.746Z,99.90
2018-07-06T03:40:58.497Z,99.90
2018-07-06T03:43:37.398Z,99.90
2018-07-06T03:46:16.130Z,99.90
2018-07-06T03:48:54.740Z,99.90
2018-07-06T03:51:33.485Z,99.90
2018-07-06T03:54:12.620Z,99.90
2018-07-06T03:56:51.447Z,99.90
2018-07-06T03:59:30.403Z,99.90
2018-07-06T04:02:09.160Z,99.90
2018-07-06T04:04:47.863Z,99.90
2018-07-06T04:07:26.475Z,99.90
2018-07-06T04:10:05.309Z,99.90
2018-07-06T04:12:44.126Z,99.90
2018-07-06T04:15:22.971Z,99.90
2018-07-06T04:18:01.725Z,99.90
2018-07-06T04:20:40.518Z,99.90
2018-07-06T04:23:19.326Z,99.90
2018-07-06T04:25:58.002Z,99.90
2018-07-06T04:28:36.783Z,99.90
2018-07-06T04:31:15.662Z,99.90
2018-07-06T04:33:54.374Z,99.90
2018-07-06T04:36:33.432Z,99.90
2018-07-06T04:39:12.031Z,99.90
2018-07-06T04:41:50.745Z,99.90
2018-07-06T04:44:29.647Z,99.90
2018-07-06T04:47:08.806Z,99.90
2018-07-06T04:49:47.627Z,99.90
2018-07-06T04:52:26.479Z,99.90
2018-07-06T04:55:05.166Z,99.90
2018-07-06T04:57:44.671Z,99.90
2018-07-06T05:00:23.409Z,99.90
2018-07-06T05:03:02.352Z,99.90
2018-07-06T05:05:40.939Z,99.90
2018-07-06T05:08:19.974Z,95.70
2018-07-06T05:10:58.821Z,93.00
2018-07-06T05:13:37.475Z,95.50
2018-07-06T05:16:16.519Z,94.10
2018-07-06T05:18:55.463Z,90.60
2018-07-06T05:21:34.222Z,82.20
2018-07-06T05:24:12.888Z,82.50
2018-07-06T05:26:51.747Z,82.60
2018-07-06T05:29:30.631Z,80.80
2018-07-06T05:32:09.427Z,79.30
2018-07-06T05:34:48.071Z,77.60
2018-07-06T05:37:26.895Z,75.80
2018-07-06T05:40:05.659Z,76.70
2018-07-06T05:42:44.414Z,71.30
2018-07-06T05:45:23.231Z,63.50
2018-07-06T05:48:02.107Z,58.20
2018-07-06T05:50:40.819Z,57.00
2018-07-06T05:53:19.475Z,53.80
2018-07-06T05:55:58.307Z,50.70
2018-07-06T05:58:36.924Z,50.50
2018-07-06T06:01:15.743Z,49.70
2018-07-06T06:03:54.540Z,52.70
2018-07-06T06:06:33.449Z,50.60
2018-07-06T06:08:59.670Z,46.90
2018-07-06T06:11:26.837Z,47.20
2018-07-06T06:13:54.083Z,45.70
2018-07-06T06:16:22.092Z,45.30
2018-07-06T06:18:49.366Z,44.60
2018-07-06T06:21:16.458Z,45.20
2018-07-06T06:23:43.595Z,44.90
2018-07-06T06:26:10.731Z,44.20
2018-07-06T06:28:38.103Z,42.60
2018-07-06T06:31:05.261Z,40.50
2018-07-06T06:33:32.431Z,39.40
2018-07-06T06:35:59.617Z,37.70
2018-07-06T06:40:54.075Z,35.20
2018-07-06T06:43:21.299Z,35.00
2018-07-06T06:45:48.491Z,35.90
2018-07-06T06:48:15.647Z,36.90
2018-07-06T06:50:42.841Z,36.10
2018-07-06T06:55:37.191Z,35.60
2018-07-06T06:58:04.360Z,36.50
2018-07-06T07:00:31.548Z,35.70
2018-07-06T07:02:58.714Z,34.70
2018-07-06T07:05:25.973Z,36.00
2018-07-06T07:07:53.242Z,33.70
2018-07-06T07:10:20.413Z,33.70
2018-07-06T07:12:47.570Z,32.70
2018-07-06T07:15:14.712Z,32.20
2018-07-06T07:17:41.893Z,32.90
2018-07-06T07:20:09.044Z,32.20
2018-07-06T07:22:36.244Z,30.60
2018-07-06T07:25:03.431Z,30.50
2018-07-06T07:27:30.667Z,30.00
2018-07-06T07:29:57.931Z,31.20
2018-07-06T07:32:25.153Z,30.80
2018-07-06T07:34:52.391Z,29.00
2018-07-06T07:37:19.552Z,27.60
2018-07-06T07:39:46.752Z,27.20
2018-07-06T07:42:13.950Z,28.30
2018-07-06T07:44:41.177Z,28.70
2018-07-06T07:47:08.395Z,28.30
2018-07-06T07:49:35.528Z,27.30
2018-07-06T07:52:14.305Z,29.10
2018-07-06T07:54:49.037Z,32.20
2018-07-06T07:57:16.267Z,31.20
2018-07-06T07:59:43.614Z,31.40
2018-07-06T08:02:10.779Z,30.40
2018-07-06T08:04:37.992Z,30.70
2018-07-06T08:07:05.182Z,30.20
2018-07-06T08:09:32.714Z,29.90
2018-07-06T08:12:01.372Z,30.20
2018-07-06T08:14:28.547Z,30.80
2018-07-06T08:16:55.791Z,30.90
2018-07-06T08:19:23.052Z,31.30
2018-07-06T08:21:50.364Z,31.00
2018-07-06T08:24:18.035Z,30.30
2018-07-06T08:26:45.200Z,31.60
2018-07-06T08:29:12.319Z,32.20
2018-07-06T08:31:39.797Z,32.20
2018-07-06T08:34:18.456Z,33.10
2018-07-06T08:37:54.046Z,34.40
2018-07-06T08:40:22.254Z,33.40
2018-07-06T08:42:50.731Z,33.60
2018-07-06T08:45:17.907Z,33.00
2018-07-06T08:47:45.541Z,35.30
2018-07-06T08:50:12.719Z,34.90
2018-07-06T08:52:40.982Z,34.40
2018-07-06T08:55:08.215Z,34.70
2018-07-06T08:57:36.126Z,35.50
2018-07-06T09:00:03.329Z,36.90
2018-07-06T09:02:30.527Z,39.50
2018-07-06T09:04:58.647Z,40.70
2018-07-06T09:07:25.854Z,39.90
2018-07-06T09:09:53.823Z,37.80
2018-07-06T09:12:20.987Z,36.40
2018-07-06T09:14:48.155Z,36.00
2018-07-06T09:17:16.306Z,35.90
2018-07-06T09:19:44.199Z,35.60
2018-07-06T09:22:11.755Z,35.20
2018-07-06T09:24:38.888Z,33.30
2018-07-06T09:27:06.386Z,31.60
2018-07-06T09:29:33.529Z,32.20
2018-07-06T09:32:00.653Z,33.10
2018-07-06T09:34:27.836Z,34.10
2018-07-06T09:36:55.365Z,35.10
2018-07-06T09:39:22.576Z,36.10
2018-07-06T09:41:49.719Z,37.60
2018-07-06T09:44:16.855Z,38.90
2018-07-06T09:46:43.983Z,40.40
2018-07-06T09:49:11.172Z,42.50
2018-07-06T09:51:38.308Z,44.70
2018-07-06T09:54:05.456Z,46.50
2018-07-06T09:56:32.608Z,47.20
2018-07-06T09:58:59.884Z,48.90
2018-07-06T10:01:27.087Z,49.90
2018-07-06T10:03:55.199Z,50.60
2018-07-06T10:06:22.875Z,51.00
2018-07-06T10:08:50.055Z,49.50
2018-07-06T10:11:17.229Z,49.70
2018-07-06T10:13:44.363Z,50.70
2018-07-06T10:16:11.581Z,50.30
2018-07-06T10:18:38.705Z,50.00
2018-07-06T10:21:06.463Z,49.00
2018-07-06T10:23:33.715Z,48.60
2018-07-06T10:26:00.855Z,49.80
2018-07-06T10:29:37.663Z,49.80
2018-07-06T10:32:16.251Z,50.90
2018-07-06T10:34:43.373Z,51.40
2018-07-06T10:37:10.532Z,52.20
2018-07-06T10:39:37.711Z,52.00
2018-07-06T10:42:05.003Z,52.70
2018-07-06T10:44:32.151Z,52.90
2018-07-06T10:46:59.320Z,52.30
2018-07-06T10:49:26.523Z,51.90
2018-07-06T10:51:53.728Z,51.60
2018-07-06T10:54:20.951Z,50.00
2018-07-06T10:56:48.111Z,49.00
2018-07-06T10:59:15.752Z,50.50
2018-07-06T11:01:42.897Z,50.80
2018-07-06T11:04:10.050Z,51.30
2018-07-06T11:06:37.182Z,50.80
2018-07-06T11:09:04.447Z,50.40
2018-07-06T11:11:31.637Z,50.30
2018-07-06T11:13:58.787Z,48.90
2018-07-06T11:16:25.947Z,49.00
2018-07-06T11:18:53.152Z,49.40
2018-07-06T11:21:20.295Z,50.20
2018-07-06T11:23:47.459Z,50.60
2018-07-06T11:26:14.617Z,50.80
2018-07-06T11:28:41.788Z,51.90
2018-07-06T11:31:08.934Z,51.30
2018-07-06T11:33:36.108Z,49.80
2018-07-06T11:36:03.330Z,49.90
2018-07-06T11:38:30.491Z,50.40
2018-07-06T11:40:57.641Z,49.80
2018-07-06T11:43:24.887Z,50.40
2018-07-06T11:45:52.115Z,50.30
2018-07-06T11:48:19.271Z,50.30
2018-07-06T11:50:46.406Z,49.30
2018-07-06T11:53:13.581Z,48.50
2018-07-06T11:55:40.746Z,48.40
2018-07-06T11:58:07.953Z,48.50
2018-07-06T12:00:35.095Z,47.60
2018-07-06T12:03:02.247Z,46.80
2018-07-06T12:05:29.436Z,47.00
2018-07-06T12:07:56.698Z,46.40
2018-07-06T12:10:23.948Z,46.40
2018-07-06T12:12:51.076Z,46.30
2018-07-06T12:15:18.211Z,46.80
2018-07-06T12:17:45.556Z,47.30
2018-07-06T12:20:12.719Z,46.60
2018-07-06T12:22:39.887Z,46.20
2018-07-06T12:25:07.087Z,46.60
2018-07-06T12:30:01.415Z,47.00
2018-07-06T12:34:55.761Z,47.20
2018-07-06T12:37:22.961Z,47.50
2018-07-06T12:39:50.141Z,47.10
2018-07-06T12:42:17.308Z,46.10
2018-07-06T12:44:44.498Z,45.00
2018-07-06T12:47:11.940Z,45.00
2018-07-06T12:49:39.140Z,45.00
2018-07-06T12:52:06.293Z,45.20
2018-07-06T12:54:33.417Z,44.50
2018-07-06T12:57:00.547Z,45.10
2018-07-06T12:59:27.777Z,44.90
2018-07-06T13:01:55.208Z,44.90
2018-07-06T13:04:22.461Z,44.50
2018-07-06T13:06:49.578Z,44.70
2018-07-06T13:09:16.720Z,43.70
2018-07-06T13:11:43.854Z,44.70
2018-07-06T13:14:10.985Z,43.70
2018-07-06T13:16:38.148Z,44.00
2018-07-06T13:19:05.328Z,44.60
2018-07-06T13:21:32.439Z,45.20
2018-07-06T13:23:59.554Z,45.80
2018-07-06T13:26:26.801Z,46.40
2018-07-06T13:28:53.964Z,45.60
2018-07-06T13:31:21.188Z,45.20
2018-07-06T13:33:48.372Z,45.30
2018-07-06T13:36:15.478Z,45.40
2018-07-06T13:38:42.637Z,45.40
2018-07-06T13:41:09.772Z,45.70
2018-07-06T13:43:37.020Z,46.00
2018-07-06T13:46:04.196Z,45.90
2018-07-06T13:48:31.343Z,45.00
2018-07-06T13:50:58.675Z,45.90
2018-07-06T13:53:25.900Z,45.90
2018-07-06T13:55:53.079Z,46.10
2018-07-06T13:58:20.231Z,46.00
2018-07-06T14:00:47.363Z,45.50
2018-07-06T14:03:14.486Z,45.40
2018-07-06T14:05:41.650Z,45.40
2018-07-06T14:08:08.770Z,46.00
2018-07-06T14:10:35.899Z,46.00
2018-07-06T14:13:03.351Z,45.60
2018-07-06T14:15:30.487Z,45.60
2018-07-06T14:17:57.643Z,45.10
2018-07-06T14:20:25.077Z,45.10
2018-07-06T14:22:52.262Z,45.00
2018-07-06T14:25:19.420Z,45.50
2018-07-06T14:27:46.543Z,45.60
2018-07-06T14:30:13.674Z,46.00
2018-07-06T14:32:40.859Z,45.40
2018-07-06T14:35:08.040Z,45.60
2018-07-06T14:37:35.393Z,45.30
2018-07-06T14:40:02.554Z,45.30
2018-07-06T14:42:29.721Z,45.30
2018-07-06T14:44:56.934Z,44.90
2018-07-06T14:47:24.294Z,45.10
2018-07-06T14:49:51.883Z,45.60
2018-07-06T14:52:18.999Z,45.10
2018-07-06T14:54:46.136Z,44.30
2018-07-06T14:57:13.287Z,44.70
2018-07-06T14:59:40.603Z,44.90
2018-07-06T15:02:08.043Z,44.80
2018-07-06T15:04:35.155Z,45.60
2018-07-06T15:07:02.444Z,45.70
2018-07-06T15:09:29.573Z,45.60
2018-07-06T15:11:56.774Z,45.20
2018-07-06T15:14:23.953Z,45.60
2018-07-06T15:16:51.081Z,45.40
2018-07-06T15:19:18.367Z,46.10
2018-07-06T15:21:45.487Z,46.40
2018-07-06T15:24:12.688Z,47.00
2018-07-06T15:26:39.817Z,46.60
2018-07-06T15:29:06.992Z,46.80
2018-07-06T15:31:34.152Z,46.90
2018-07-06T15:34:01.423Z,46.70
2018-07-06T15:36:28.845Z,46.60
2018-07-06T15:41:23.559Z,46.00
2018-07-06T15:43:50.692Z,46.20
2018-07-06T15:46:17.859Z,45.70
2018-07-06T15:48:44.992Z,45.60
2018-07-06T15:51:12.139Z,44.50
2018-07-06T15:53:39.266Z,45.10
2018-07-06T15:56:06.468Z,45.60
2018-07-06T15:58:33.755Z,45.90
2018-07-06T16:01:00.992Z,45.80
2018-07-06T16:03:28.283Z,45.90
2018-07-06T16:05:55.590Z,45.10
2018-07-06T16:08:22.822Z,44.70
2018-07-06T16:10:49.991Z,44.40
2018-07-06T16:13:17.174Z,43.90
2018-07-06T16:15:44.355Z,44.30
2018-07-06T16:18:11.535Z,44.30
2018-07-06T16:20:38.741Z,44.90
2018-07-06T16:23:05.963Z,45.20
2018-07-06T16:25:33.127Z,45.90
2018-07-06T16:28:00.437Z,45.30
2018-07-06T16:30:27.619Z,45.00
2018-07-06T16:32:54.779Z,45.00
2018-07-06T16:35:22.004Z,45.10
2018-07-06T16:37:49.125Z,45.00
2018-07-06T16:40:16.273Z,44.40
2018-07-06T16:42:43.461Z,44.70
2018-07-06T16:45:10.628Z,45.20
2018-07-06T16:47:37.799Z,45.90
2018-07-06T16:50:05.138Z,46.40
2018-07-06T16:52:32.275Z,46.40
2018-07-06T16:54:59.632Z,46.70
2018-07-06T16:59:53.983Z,46.50
2018-07-06T17:02:21.116Z,46.60
2018-07-06T17:04:48.296Z,46.80
2018-07-06T17:07:15.457Z,47.90
2018-07-06T17:09:42.589Z,47.60
2018-07-06T17:12:09.706Z,47.70
2018-07-06T17:14:36.835Z,48.30
2018-07-06T17:17:04.015Z,48.50
2018-07-06T17:19:31.264Z,49.20
2018-07-06T17:21:58.443Z,49.70
2018-07-06T17:24:25.680Z,50.10
2018-07-06T17:26:52.845Z,50.50
2018-07-06T17:29:20.008Z,51.30
2018-07-06T17:31:47.200Z,50.20
2018-07-06T17:34:14.400Z,51.30
2018-07-06T17:36:41.578Z,50.70
2018-07-06T17:39:08.730Z,50.60
2018-07-06T17:41:36.119Z,50.80
2018-07-06T17:44:03.294Z,50.90
2018-07-06T17:46:30.526Z,51.40
2018-07-06T17:48:57.767Z,51.60
2018-07-06T17:51:25.046Z,52.00
2018-07-06T17:53:52.189Z,51.80
2018-07-06T17:56:19.484Z,51.70
2018-07-06T17:58:46.661Z,51.10
2018-07-06T18:01:13.828Z,50.80
2018-07-06T18:03:40.994Z,51.00
2018-07-06T18:06:08.146Z,50.80
2018-07-06T18:08:35.313Z,51.10
2018-07-06T18:11:02.526Z,51.20
2018-07-06T18:13:29.694Z,51.40
2018-07-06T18:15:56.933Z,51.80
2018-07-06T18:18:24.125Z,52.00
2018-07-06T18:20:51.718Z,52.10
2018-07-06T18:23:18.919Z,52.50
2018-07-06T18:25:46.150Z,52.60
2018-07-06T18:28:13.286Z,52.90
2018-07-06T18:30:40.454Z,52.50
2018-07-06T18:33:07.572Z,52.60
2018-07-06T18:35:34.702Z,52.50
2018-07-06T18:38:01.881Z,52.50
2018-07-06T18:40:29.277Z,52.70
2018-07-06T18:42:56.621Z,52.70
2018-07-06T18:45:23.744Z,52.70
2018-07-06T18:47:50.876Z,52.80
2018-07-06T18:52:45.179Z,53.30
2018-07-06T18:55:12.358Z,53.60
2018-07-06T18:57:39.498Z,54.10
2018-07-06T19:00:06.718Z,54.20
2018-07-06T19:02:33.903Z,54.20
2018-07-06T19:05:01.201Z,54.50
2018-07-06T19:07:28.413Z,54.80
2018-07-06T19:09:55.705Z,54.70
2018-07-06T19:12:22.874Z,55.20
2018-07-06T19:14:50.026Z,55.60
2018-07-06T19:17:17.178Z,55.80
2018-07-06T19:19:44.423Z,56.20
2018-07-06T19:22:11.559Z,56.40
2018-07-06T19:24:38.683Z,56.60
2018-07-06T19:27:05.814Z,57.00
2018-07-06T19:29:32.971Z,57.50
2018-07-06T19:32:00.206Z,57.80
2018-07-06T19:34:27.343Z,57.70
2018-07-06T19:36:54.873Z,58.00
2018-07-06T19:39:22.051Z,58.40
2018-07-06T19:41:49.213Z,58.80
2018-07-06T19:44:16.379Z,59.20
2018-07-06T19:46:43.505Z,59.70
2018-07-06T19:49:10.661Z,60.00
2018-07-06T19:51:37.837Z,60.40
2018-07-06T19:54:05.246Z,61.20
2018-07-06T19:56:32.523Z,61.70
2018-07-06T19:58:59.805Z,62.20
2018-07-06T20:01:27.215Z,62.60
2018-07-06T20:06:21.551Z,62.90
2018-07-06T20:08:48.684Z,63.40
2018-07-06T20:11:15.863Z,63.80
2018-07-06T20:13:43.053Z,63.90
2018-07-06T20:16:10.224Z,64.40
2018-07-06T20:18:37.379Z,64.60
2018-07-06T20:21:04.626Z,64.80
2018-07-06T20:23:31.822Z,65.10
2018-07-06T20:25:59.080Z,65.60
2018-07-06T20:28:26.412Z,65.90
2018-07-06T20:30:53.595Z,66.40
2018-07-06T20:33:20.736Z,66.90
2018-07-06T20:35:47.866Z,67.60
2018-07-06T20:38:15.127Z,68.30
2018-07-06T20:40:42.372Z,68.80
2018-07-06T20:43:09.494Z,69.70
2018-07-06T20:45:36.675Z,70.60
2018-07-06T20:48:03.985Z,71.00
2018-07-06T20:50:31.177Z,71.50
2018-07-06T20:55:25.579Z,73.80
2018-07-06T20:57:52.728Z,73.90
2018-07-06T21:00:19.867Z,74.70
2018-07-06T21:02:47.004Z,75.40
2018-07-06T21:05:14.159Z,75.40
2018-07-06T21:10:08.496Z,77.20
2018-07-06T21:15:02.919Z,78.40
2018-07-06T21:17:30.248Z,79.40
2018-07-06T21:19:57.486Z,79.00
2018-07-06T21:22:24.756Z,78.80
2018-07-06T21:24:52.352Z,78.90
2018-07-06T21:27:19.500Z,79.50
2018-07-06T21:29:46.812Z,80.00
2018-07-06T21:32:14.016Z,80.30
2018-07-06T21:34:41.308Z,80.50
2018-07-06T21:37:08.451Z,80.40
2018-07-06T21:39:35.575Z,80.10
2018-07-06T21:42:02.837Z,79.50
2018-07-06T21:44:30.119Z,80.80
2018-07-06T21:46:57.494Z,81.00
2018-07-06T21:49:24.696Z,80.60
2018-07-06T21:51:51.833Z,80.70
2018-07-06T21:54:18.985Z,80.60
2018-07-06T21:56:46.097Z,81.50
2018-07-06T21:59:13.268Z,81.60
2018-07-06T22:01:40.438Z,82.00
2018-07-06T22:04:07.580Z,82.00
2018-07-06T22:06:34.764Z,82.50
2018-07-06T22:09:02.000Z,82.50
2018-07-06T22:11:29.252Z,82.50
2018-07-06T22:13:56.479Z,82.50
2018-07-06T22:16:23.641Z,82.90
2018-07-06T22:18:50.783Z,82.90
2018-07-06T22:21:17.938Z,83.20
2018-07-06T22:23:45.078Z,83.40
2018-07-06T22:26:12.227Z,84.20
2018-07-06T22:28:39.415Z,84.70
2018-07-06T22:31:06.610Z,85.30
2018-07-06T22:33:33.807Z,85.90
2018-07-06T22:36:01.024Z,87.00
2018-07-06T22:38:28.502Z,87.60
2018-07-06T22:40:55.649Z,88.60
2018-07-06T22:43:22.783Z,89.30
2018-07-06T22:45:49.914Z,90.20
2018-07-06T22:53:11.387Z,91.30
2018-07-06T22:55:38.528Z,91.60
2018-07-06T22:58:05.679Z,90.90
2018-07-06T23:00:32.903Z,90.70
2018-07-06T23:03:02.286Z,90.70
2018-07-06T23:05:29.512Z,91.30
2018-07-06T23:07:56.820Z,91.60
2018-07-06T23:10:24.188Z,92.00
2018-07-06T23:12:51.342Z,92.20
2018-07-06T23:15:18.484Z,92.50
2018-07-06T23:17:45.635Z,92.60
2018-07-06T23:20:12.771Z,92.80
2018-07-06T23:23:03.344Z,93.50
2018-07-06T23:25:32.151Z,93.90
2018-07-06T23:27:59.359Z,94.10
2018-07-06T23:30:26.591Z,94.40
2018-07-06T23:32:54.539Z,94.10
2018-07-06T23:35:22.063Z,94.30
2018-07-06T23:37:49.247Z,94.90
2018-07-06T23:40:16.420Z,94.30
2018-07-06T23:42:43.583Z,94.00
2018-07-06T23:45:10.767Z,94.30
2018-07-06T23:47:37.946Z,94.70
2018-07-06T23:50:05.132Z,95.40
2018-07-06T23:54:59.534Z,97.50
2018-07-06T23:57:26.901Z,98.00
2018-07-06T23:59:54.339Z,98.20
